sensor_id;sensor_type;location;lat;lon;timestamp;P1;durP1;ratioP1;P2;durP2;ratioP2
7901;SDS011;3996;49.674;10.716;2024-01-15T00:01:16;32.60;;;13.77;;
7901;SDS011;3996;49.674;10.716;2024-01-15T00:03:42;32.13;;;15.13;;
7901;SDS011;3996;49.674;10.716;2024-01-15T00:06:07;35.53;;;14.60;;
7901;SDS011;3996;49.674;10.716;2024-01-15T00:08:33;39.37;;;14.77;;
7901;SDS011;3996;49.674;10.716;2024-01-15T00:10:58;37.77;;;15.37;;
7901;SDS011;3996;49.674;10.716;2024-01-15T00:13:24;37.43;;;15.53;;
7901;SDS011;3996;49.674;10.716;2024-01-15T00:15:49;34.97;;;15.40;;
7901;SDS011;3996;49.674;10.716;2024-01-15T00:18:15;37.77;;;15.30;;
7901;SDS011;3996;49.674;10.716;2024-01-15T00:20:41;35.10;;;14.47;;
7901;SDS011;3996;49.674;10.716;2024-01-15T00:23:06;40.03;;;14.13;;
7901;SDS011;3996;49.674;10.716;2024-01-15T00:25:32;34.33;;;14.63;;
7901;SDS011;3996;49.674;10.716;2024-01-15T00:27:57;34.80;;;14.77;;
7901;SDS011;3996;49.674;10.716;2024-01-15T00:30:23;38.23;;;15.60;;
7901;SDS011;3996;49.674;10.716;2024-01-15T00:32:48;38.77;;;14.30;;
7901;SDS011;3996;49.674;10.716;2024-01-15T00:35:14;39.27;;;14.77;;
7901;SDS011;3996;49.674;10.716;2024-01-15T00:37:40;37.13;;;14.63;;
7901;SDS011;3996;49.674;10.716;2024-01-15T00:40:05;37.03;;;15.40;;
7901;SDS011;3996;49.674;10.716;2024-01-15T00:42:32;37.67;;;14.97;;
7901;SDS011;3996;49.674;10.716;2024-01-15T00:44:58;39.23;;;14.63;;
7901;SDS011;3996;49.674;10.716;2024-01-15T00:47:24;36.10;;;15.20;;
7901;SDS011;3996;49.674;10.716;2024-01-15T00:49:49;34.37;;;14.30;;
7901;SDS011;3996;49.674;10.716;2024-01-15T00:52:15;41.53;;;16.10;;
7901;SDS011;3996;49.674;10.716;2024-01-15T00:54:41;32.90;;;14.33;;
7901;SDS011;3996;49.674;10.716;2024-01-15T00:57:06;38.67;;;15.50;;
7901;SDS011;3996;49.674;10.716;2024-01-15T00:59:32;34.43;;;15.57;;
7901;SDS011;3996;49.674;10.716;2024-01-15T01:01:57;40.93;;;15.50;;
7901;SDS011;3996;49.674;10.716;2024-01-15T01:04:23;35.43;;;15.33;;
7901;SDS011;3996;49.674;10.716;2024-01-15T01:06:48;29.63;;;14.37;;
7901;SDS011;3996;49.674;10.716;2024-01-15T01:09:14;33.87;;;13.93;;
7901;SDS011;3996;49.674;10.716;2024-01-15T01:11:40;34.93;;;14.97;;
7901;SDS011;3996;49.674;10.716;2024-01-15T01:14:05;34.10;;;15.23;;
7901;SDS011;3996;49.674;10.716;2024-01-15T01:16:31;37.80;;;15.67;;
7901;SDS011;3996;49.674;10.716;2024-01-15T01:19:03;34.27;;;13.77;;
7901;SDS011;3996;49.674;10.716;2024-01-15T01:21:30;29.93;;;13.77;;
7901;SDS011;3996;49.674;10.716;2024-01-15T01:23:55;33.57;;;13.53;;
7901;SDS011;3996;49.674;10.716;2024-01-15T01:26:21;30.43;;;13.23;;
7901;SDS011;3996;49.674;10.716;2024-01-15T01:28:46;32.37;;;13.23;;
7901;SDS011;3996;49.674;10.716;2024-01-15T01:31:12;29.90;;;13.03;;
7901;SDS011;3996;49.674;10.716;2024-01-15T01:33:38;31.07;;;13.97;;
7901;SDS011;3996;49.674;10.716;2024-01-15T01:36:07;32.13;;;13.97;;
7901;SDS011;3996;49.674;10.716;2024-01-15T01:38:34;35.20;;;15.03;;
7901;SDS011;3996;49.674;10.716;2024-01-15T01:41:00;29.70;;;13.30;;
7901;SDS011;3996;49.674;10.716;2024-01-15T01:43:26;32.03;;;14.00;;
7901;SDS011;3996;49.674;10.716;2024-01-15T01:45:51;28.50;;;13.10;;
7901;SDS011;3996;49.674;10.716;2024-01-15T01:48:17;34.10;;;12.73;;
7901;SDS011;3996;49.674;10.716;2024-01-15T01:50:43;35.30;;;14.27;;
7901;SDS011;3996;49.674;10.716;2024-01-15T01:53:09;33.50;;;14.13;;
7901;SDS011;3996;49.674;10.716;2024-01-15T01:55:35;30.83;;;13.47;;
7901;SDS011;3996;49.674;10.716;2024-01-15T01:58:03;27.30;;;12.77;;
7901;SDS011;3996;49.674;10.716;2024-01-15T02:00:30;26.57;;;12.70;;
7901;SDS011;3996;49.674;10.716;2024-01-15T02:02:57;31.83;;;13.63;;
7901;SDS011;3996;49.674;10.716;2024-01-15T02:05:23;32.90;;;13.30;;
7901;SDS011;3996;49.674;10.716;2024-01-15T02:07:48;30.03;;;14.07;;
7901;SDS011;3996;49.674;10.716;2024-01-15T02:10:14;31.17;;;13.73;;
7901;SDS011;3996;49.674;10.716;2024-01-15T02:12:39;30.80;;;13.40;;
7901;SDS011;3996;49.674;10.716;2024-01-15T02:15:05;29.57;;;12.70;;
7901;SDS011;3996;49.674;10.716;2024-01-15T02:17:31;29.53;;;13.07;;
7901;SDS011;3996;49.674;10.716;2024-01-15T02:19:57;33.57;;;13.73;;
7901;SDS011;3996;49.674;10.716;2024-01-15T02:22:22;28.97;;;12.90;;
7901;SDS011;3996;49.674;10.716;2024-01-15T02:24:48;30.50;;;13.53;;
7901;SDS011;3996;49.674;10.716;2024-01-15T02:27:13;31.80;;;13.00;;
7901;SDS011;3996;49.674;10.716;2024-01-15T02:29:39;29.23;;;12.50;;
7901;SDS011;3996;49.674;10.716;2024-01-15T02:32:05;30.93;;;13.27;;
7901;SDS011;3996;49.674;10.716;2024-01-15T02:34:34;30.07;;;13.17;;
7901;SDS011;3996;49.674;10.716;2024-01-15T02:37:00;31.10;;;13.70;;
7901;SDS011;3996;49.674;10.716;2024-01-15T02:39:26;29.43;;;13.00;;
7901;SDS011;3996;49.674;10.716;2024-01-15T02:41:51;28.20;;;12.70;;
7901;SDS011;3996;49.674;10.716;2024-01-15T02:44:17;32.17;;;13.93;;
7901;SDS011;3996;49.674;10.716;2024-01-15T02:46:42;29.83;;;12.67;;
7901;SDS011;3996;49.674;10.716;2024-01-15T02:49:08;28.70;;;12.73;;
7901;SDS011;3996;49.674;10.716;2024-01-15T02:51:33;25.23;;;12.17;;
7901;SDS011;3996;49.674;10.716;2024-01-15T02:53:59;30.13;;;12.37;;
7901;SDS011;3996;49.674;10.716;2024-01-15T02:56:25;27.80;;;13.23;;
7901;SDS011;3996;49.674;10.716;2024-01-15T02:58:50;26.93;;;11.90;;
7901;SDS011;3996;49.674;10.716;2024-01-15T03:01:18;25.27;;;12.07;;
7901;SDS011;3996;49.674;10.716;2024-01-15T03:03:44;25.93;;;12.10;;
7901;SDS011;3996;49.674;10.716;2024-01-15T03:06:10;27.43;;;12.70;;
7901;SDS011;3996;49.674;10.716;2024-01-15T03:08:36;28.90;;;12.07;;
7901;SDS011;3996;49.674;10.716;2024-01-15T03:11:01;23.20;;;11.30;;
7901;SDS011;3996;49.674;10.716;2024-01-15T03:13:27;26.53;;;11.87;;
7901;SDS011;3996;49.674;10.716;2024-01-15T03:15:52;25.23;;;11.47;;
7901;SDS011;3996;49.674;10.716;2024-01-15T03:18:18;27.33;;;12.07;;
7901;SDS011;3996;49.674;10.716;2024-01-15T03:20:43;24.37;;;11.43;;
7901;SDS011;3996;49.674;10.716;2024-01-15T03:23:09;28.17;;;11.47;;
7901;SDS011;3996;49.674;10.716;2024-01-15T03:25:35;27.60;;;11.87;;
7901;SDS011;3996;49.674;10.716;2024-01-15T03:28:00;26.83;;;11.83;;
7901;SDS011;3996;49.674;10.716;2024-01-15T03:30:26;24.17;;;10.60;;
7901;SDS011;3996;49.674;10.716;2024-01-15T03:32:51;26.83;;;11.53;;
7901;SDS011;3996;49.674;10.716;2024-01-15T03:35:17;25.30;;;11.50;;
7901;SDS011;3996;49.674;10.716;2024-01-15T03:37:43;27.10;;;12.17;;
7901;SDS011;3996;49.674;10.716;2024-01-15T03:40:08;24.57;;;11.77;;
7901;SDS011;3996;49.674;10.716;2024-01-15T03:42:34;27.87;;;12.13;;
7901;SDS011;3996;49.674;10.716;2024-01-15T03:45:00;26.77;;;11.13;;
7901;SDS011;3996;49.674;10.716;2024-01-15T03:47:26;25.70;;;11.73;;
7901;SDS011;3996;49.674;10.716;2024-01-15T03:49:51;21.77;;;10.57;;
7901;SDS011;3996;49.674;10.716;2024-01-15T03:52:17;27.57;;;11.80;;
7901;SDS011;3996;49.674;10.716;2024-01-15T03:54:42;28.20;;;12.47;;
7901;SDS011;3996;49.674;10.716;2024-01-15T03:57:08;24.80;;;11.63;;
7901;SDS011;3996;49.674;10.716;2024-01-15T03:59:33;26.00;;;11.97;;
7901;SDS011;3996;49.674;10.716;2024-01-15T04:01:59;25.00;;;12.40;;
7901;SDS011;3996;49.674;10.716;2024-01-15T04:04:24;25.03;;;11.73;;
7901;SDS011;3996;49.674;10.716;2024-01-15T04:06:50;25.27;;;11.77;;
7901;SDS011;3996;49.674;10.716;2024-01-15T04:09:16;28.17;;;13.23;;
7901;SDS011;3996;49.674;10.716;2024-01-15T04:11:41;25.07;;;11.70;;
7901;SDS011;3996;49.674;10.716;2024-01-15T04:14:07;26.50;;;12.00;;
7901;SDS011;3996;49.674;10.716;2024-01-15T04:16:32;25.73;;;12.07;;
7901;SDS011;3996;49.674;10.716;2024-01-15T04:18:58;25.00;;;12.07;;
7901;SDS011;3996;49.674;10.716;2024-01-15T04:21:23;26.80;;;12.27;;
7901;SDS011;3996;49.674;10.716;2024-01-15T04:23:49;26.90;;;12.27;;
7901;SDS011;3996;49.674;10.716;2024-01-15T04:26:14;25.40;;;12.47;;
7901;SDS011;3996;49.674;10.716;2024-01-15T04:28:40;27.27;;;12.40;;
7901;SDS011;3996;49.674;10.716;2024-01-15T04:31:06;27.33;;;12.50;;
7901;SDS011;3996;49.674;10.716;2024-01-15T04:33:31;25.13;;;12.23;;
7901;SDS011;3996;49.674;10.716;2024-01-15T04:35:57;22.03;;;10.80;;
7901;SDS011;3996;49.674;10.716;2024-01-15T04:38:27;27.53;;;12.17;;
7901;SDS011;3996;49.674;10.716;2024-01-15T04:40:52;24.70;;;12.00;;
7901;SDS011;3996;49.674;10.716;2024-01-15T04:43:18;26.73;;;12.10;;
7901;SDS011;3996;49.674;10.716;2024-01-15T04:45:43;27.57;;;12.93;;
7901;SDS011;3996;49.674;10.716;2024-01-15T04:48:09;27.87;;;12.50;;
7901;SDS011;3996;49.674;10.716;2024-01-15T04:50:34;27.90;;;12.00;;
7901;SDS011;3996;49.674;10.716;2024-01-15T04:53:00;29.10;;;12.50;;
7901;SDS011;3996;49.674;10.716;2024-01-15T04:55:26;22.70;;;11.87;;
7901;SDS011;3996;49.674;10.716;2024-01-15T04:57:51;24.67;;;12.20;;
7901;SDS011;3996;49.674;10.716;2024-01-15T05:00:17;26.03;;;12.53;;
7901;SDS011;3996;49.674;10.716;2024-01-15T05:02:42;23.03;;;11.67;;
7901;SDS011;3996;49.674;10.716;2024-01-15T05:05:08;25.90;;;12.53;;
7901;SDS011;3996;49.674;10.716;2024-01-15T05:07:33;26.00;;;11.03;;
7901;SDS011;3996;49.674;10.716;2024-01-15T05:09:59;27.07;;;12.10;;
7901;SDS011;3996;49.674;10.716;2024-01-15T05:12:25;27.43;;;12.63;;
7901;SDS011;3996;49.674;10.716;2024-01-15T05:14:50;26.83;;;11.80;;
7901;SDS011;3996;49.674;10.716;2024-01-15T05:17:16;26.27;;;11.53;;
7901;SDS011;3996;49.674;10.716;2024-01-15T05:19:42;24.23;;;11.83;;
7901;SDS011;3996;49.674;10.716;2024-01-15T05:22:07;24.87;;;11.53;;
7901;SDS011;3996;49.674;10.716;2024-01-15T05:24:33;25.30;;;12.57;;
7901;SDS011;3996;49.674;10.716;2024-01-15T05:26:58;26.83;;;12.03;;
7901;SDS011;3996;49.674;10.716;2024-01-15T05:29:24;25.57;;;12.47;;
7901;SDS011;3996;49.674;10.716;2024-01-15T05:31:49;25.63;;;11.33;;
7901;SDS011;3996;49.674;10.716;2024-01-15T05:34:15;26.27;;;11.93;;
7901;SDS011;3996;49.674;10.716;2024-01-15T05:36:41;23.00;;;11.00;;
7901;SDS011;3996;49.674;10.716;2024-01-15T05:39:06;25.27;;;11.07;;
7901;SDS011;3996;49.674;10.716;2024-01-15T05:41:32;25.60;;;11.93;;
7901;SDS011;3996;49.674;10.716;2024-01-15T05:43:57;28.13;;;12.20;;
7901;SDS011;3996;49.674;10.716;2024-01-15T05:46:23;24.23;;;12.13;;
7901;SDS011;3996;49.674;10.716;2024-01-15T05:48:48;26.13;;;12.50;;
7901;SDS011;3996;49.674;10.716;2024-01-15T05:51:14;24.40;;;11.30;;
7901;SDS011;3996;49.674;10.716;2024-01-15T05:53:40;23.87;;;11.73;;
7901;SDS011;3996;49.674;10.716;2024-01-15T05:56:07;23.03;;;11.13;;
7901;SDS011;3996;49.674;10.716;2024-01-15T05:58:33;22.17;;;11.53;;
7901;SDS011;3996;49.674;10.716;2024-01-15T06:00:58;23.10;;;10.83;;
7901;SDS011;3996;49.674;10.716;2024-01-15T06:03:24;25.47;;;11.23;;
7901;SDS011;3996;49.674;10.716;2024-01-15T06:05:50;23.00;;;11.30;;
7901;SDS011;3996;49.674;10.716;2024-01-15T06:08:15;23.07;;;11.37;;
7901;SDS011;3996;49.674;10.716;2024-01-15T06:10:41;22.50;;;10.73;;
7901;SDS011;3996;49.674;10.716;2024-01-15T06:13:06;20.50;;;9.80;;
7901;SDS011;3996;49.674;10.716;2024-01-15T06:15:32;22.77;;;10.33;;
7901;SDS011;3996;49.674;10.716;2024-01-15T06:17:57;23.50;;;11.43;;
7901;SDS011;3996;49.674;10.716;2024-01-15T06:20:23;22.77;;;10.87;;
7901;SDS011;3996;49.674;10.716;2024-01-15T06:22:49;25.73;;;11.03;;
7901;SDS011;3996;49.674;10.716;2024-01-15T06:25:14;24.40;;;11.13;;
7901;SDS011;3996;49.674;10.716;2024-01-15T06:27:40;23.53;;;10.60;;
7901;SDS011;3996;49.674;10.716;2024-01-15T06:30:05;25.93;;;10.87;;
7901;SDS011;3996;49.674;10.716;2024-01-15T06:32:31;22.20;;;10.50;;
7901;SDS011;3996;49.674;10.716;2024-01-15T06:34:57;23.90;;;10.70;;
7901;SDS011;3996;49.674;10.716;2024-01-15T06:37:22;21.00;;;10.43;;
7901;SDS011;3996;49.674;10.716;2024-01-15T06:39:48;23.87;;;11.70;;
7901;SDS011;3996;49.674;10.716;2024-01-15T06:42:13;25.47;;;10.80;;
7901;SDS011;3996;49.674;10.716;2024-01-15T06:44:39;20.13;;;10.53;;
7901;SDS011;3996;49.674;10.716;2024-01-15T06:47:05;18.80;;;10.33;;
7901;SDS011;3996;49.674;10.716;2024-01-15T06:49:30;20.30;;;10.30;;
7901;SDS011;3996;49.674;10.716;2024-01-15T06:51:56;23.47;;;10.37;;
7901;SDS011;3996;49.674;10.716;2024-01-15T06:54:22;23.57;;;11.10;;
7901;SDS011;3996;49.674;10.716;2024-01-15T06:56:48;23.20;;;11.20;;
7901;SDS011;3996;49.674;10.716;2024-01-15T06:59:15;22.93;;;10.67;;
7901;SDS011;3996;49.674;10.716;2024-01-15T07:01:40;21.70;;;10.67;;
7901;SDS011;3996;49.674;10.716;2024-01-15T07:04:06;25.57;;;10.77;;
7901;SDS011;3996;49.674;10.716;2024-01-15T07:06:32;23.07;;;11.03;;
7901;SDS011;3996;49.674;10.716;2024-01-15T07:08:57;22.60;;;10.60;;
7901;SDS011;3996;49.674;10.716;2024-01-15T07:11:23;24.23;;;11.73;;
7901;SDS011;3996;49.674;10.716;2024-01-15T07:13:48;28.20;;;13.50;;
7901;SDS011;3996;49.674;10.716;2024-01-15T07:16:14;25.03;;;13.50;;
7901;SDS011;3996;49.674;10.716;2024-01-15T07:18:40;25.00;;;11.43;;
7901;SDS011;3996;49.674;10.716;2024-01-15T07:21:06;24.40;;;11.07;;
7901;SDS011;3996;49.674;10.716;2024-01-15T07:23:31;25.60;;;11.73;;
7901;SDS011;3996;49.674;10.716;2024-01-15T07:25:57;20.80;;;10.73;;
7901;SDS011;3996;49.674;10.716;2024-01-15T07:28:23;25.33;;;11.87;;
7901;SDS011;3996;49.674;10.716;2024-01-15T07:30:48;23.00;;;10.70;;
7901;SDS011;3996;49.674;10.716;2024-01-15T07:33:14;21.70;;;11.30;;
7901;SDS011;3996;49.674;10.716;2024-01-15T07:35:39;23.07;;;10.90;;
7901;SDS011;3996;49.674;10.716;2024-01-15T07:38:05;22.00;;;10.80;;
7901;SDS011;3996;49.674;10.716;2024-01-15T07:40:30;25.30;;;10.93;;
7901;SDS011;3996;49.674;10.716;2024-01-15T07:42:56;24.97;;;11.60;;
7901;SDS011;3996;49.674;10.716;2024-01-15T07:45:21;22.23;;;11.33;;
7901;SDS011;3996;49.674;10.716;2024-01-15T07:47:47;23.13;;;11.17;;
7901;SDS011;3996;49.674;10.716;2024-01-15T07:50:14;24.77;;;11.27;;
7901;SDS011;3996;49.674;10.716;2024-01-15T07:52:40;27.67;;;13.23;;
7901;SDS011;3996;49.674;10.716;2024-01-15T07:55:06;23.43;;;11.00;;
7901;SDS011;3996;49.674;10.716;2024-01-15T07:57:32;22.87;;;11.80;;
7901;SDS011;3996;49.674;10.716;2024-01-15T07:59:58;21.63;;;11.30;;
7901;SDS011;3996;49.674;10.716;2024-01-15T08:02:24;21.20;;;10.47;;
7901;SDS011;3996;49.674;10.716;2024-01-15T08:04:49;23.67;;;11.83;;
7901;SDS011;3996;49.674;10.716;2024-01-15T08:07:15;22.07;;;11.50;;
7901;SDS011;3996;49.674;10.716;2024-01-15T08:09:41;23.50;;;11.30;;
7901;SDS011;3996;49.674;10.716;2024-01-15T08:12:07;23.73;;;11.13;;
7901;SDS011;3996;49.674;10.716;2024-01-15T08:14:32;23.40;;;11.63;;
7901;SDS011;3996;49.674;10.716;2024-01-15T08:16:58;21.23;;;11.00;;
7901;SDS011;3996;49.674;10.716;2024-01-15T08:19:24;27.57;;;12.50;;
7901;SDS011;3996;49.674;10.716;2024-01-15T08:21:49;23.07;;;11.57;;
7901;SDS011;3996;49.674;10.716;2024-01-15T08:24:15;22.90;;;11.30;;
7901;SDS011;3996;49.674;10.716;2024-01-15T08:26:41;20.23;;;11.13;;
7901;SDS011;3996;49.674;10.716;2024-01-15T08:29:07;21.17;;;10.87;;
7901;SDS011;3996;49.674;10.716;2024-01-15T08:31:33;25.77;;;11.53;;
7901;SDS011;3996;49.674;10.716;2024-01-15T08:33:58;27.23;;;12.20;;
7901;SDS011;3996;49.674;10.716;2024-01-15T08:36:24;22.37;;;11.63;;
7901;SDS011;3996;49.674;10.716;2024-01-15T08:38:50;26.50;;;11.93;;
7901;SDS011;3996;49.674;10.716;2024-01-15T08:41:16;25.90;;;11.97;;
7901;SDS011;3996;49.674;10.716;2024-01-15T08:43:41;22.77;;;11.67;;
7901;SDS011;3996;49.674;10.716;2024-01-15T08:46:07;23.53;;;11.30;;
7901;SDS011;3996;49.674;10.716;2024-01-15T08:48:33;22.23;;;11.33;;
7901;SDS011;3996;49.674;10.716;2024-01-15T08:50:58;22.30;;;11.00;;
7901;SDS011;3996;49.674;10.716;2024-01-15T08:53:24;22.67;;;11.33;;
7901;SDS011;3996;49.674;10.716;2024-01-15T08:55:49;20.40;;;10.67;;
7901;SDS011;3996;49.674;10.716;2024-01-15T08:58:15;21.40;;;11.17;;
7901;SDS011;3996;49.674;10.716;2024-01-15T09:00:41;22.20;;;11.63;;
7901;SDS011;3996;49.674;10.716;2024-01-15T09:03:07;22.80;;;11.07;;
7901;SDS011;3996;49.674;10.716;2024-01-15T09:05:33;23.70;;;12.10;;
7901;SDS011;3996;49.674;10.716;2024-01-15T09:07:59;20.83;;;11.73;;
7901;SDS011;3996;49.674;10.716;2024-01-15T09:10:25;22.37;;;11.93;;
7901;SDS011;3996;49.674;10.716;2024-01-15T09:12:50;20.50;;;11.20;;
7901;SDS011;3996;49.674;10.716;2024-01-15T09:15:16;22.47;;;10.83;;
7901;SDS011;3996;49.674;10.716;2024-01-15T09:17:42;21.60;;;11.70;;
7901;SDS011;3996;49.674;10.716;2024-01-15T09:20:08;19.97;;;10.20;;
7901;SDS011;3996;49.674;10.716;2024-01-15T09:22:34;19.97;;;10.63;;
7901;SDS011;3996;49.674;10.716;2024-01-15T09:25:00;21.77;;;11.03;;
7901;SDS011;3996;49.674;10.716;2024-01-15T09:27:26;20.77;;;10.67;;
7901;SDS011;3996;49.674;10.716;2024-01-15T09:29:52;20.03;;;10.53;;
7901;SDS011;3996;49.674;10.716;2024-01-15T09:32:18;22.10;;;11.20;;
7901;SDS011;3996;49.674;10.716;2024-01-15T09:34:44;20.03;;;10.87;;
7901;SDS011;3996;49.674;10.716;2024-01-15T09:37:11;19.00;;;10.13;;
7901;SDS011;3996;49.674;10.716;2024-01-15T09:39:39;19.30;;;11.20;;
7901;SDS011;3996;49.674;10.716;2024-01-15T09:42:04;20.57;;;11.67;;
7901;SDS011;3996;49.674;10.716;2024-01-15T09:44:30;22.07;;;10.53;;
7901;SDS011;3996;49.674;10.716;2024-01-15T09:46:57;19.00;;;10.37;;
7901;SDS011;3996;49.674;10.716;2024-01-15T09:49:23;21.50;;;11.23;;
7901;SDS011;3996;49.674;10.716;2024-01-15T09:51:49;17.90;;;10.20;;
7901;SDS011;3996;49.674;10.716;2024-01-15T09:54:15;18.57;;;10.13;;
7901;SDS011;3996;49.674;10.716;2024-01-15T09:56:44;19.50;;;9.83;;
7901;SDS011;3996;49.674;10.716;2024-01-15T09:59:13;18.73;;;10.07;;
7901;SDS011;3996;49.674;10.716;2024-01-15T10:01:40;18.67;;;10.37;;
7901;SDS011;3996;49.674;10.716;2024-01-15T10:04:10;17.40;;;9.87;;
7901;SDS011;3996;49.674;10.716;2024-01-15T10:06:37;16.13;;;9.20;;
7901;SDS011;3996;49.674;10.716;2024-01-15T10:09:04;19.93;;;9.93;;
7901;SDS011;3996;49.674;10.716;2024-01-15T10:11:30;18.23;;;9.73;;
7901;SDS011;3996;49.674;10.716;2024-01-15T10:13:56;19.10;;;9.93;;
7901;SDS011;3996;49.674;10.716;2024-01-15T10:16:22;18.40;;;9.30;;
7901;SDS011;3996;49.674;10.716;2024-01-15T10:18:48;14.60;;;9.57;;
7901;SDS011;3996;49.674;10.716;2024-01-15T10:21:14;17.97;;;9.77;;
7901;SDS011;3996;49.674;10.716;2024-01-15T10:23:40;15.67;;;9.20;;
7901;SDS011;3996;49.674;10.716;2024-01-15T10:26:06;18.67;;;10.10;;
7901;SDS011;3996;49.674;10.716;2024-01-15T10:28:32;17.00;;;9.47;;
7901;SDS011;3996;49.674;10.716;2024-01-15T10:30:58;19.10;;;9.47;;
7901;SDS011;3996;49.674;10.716;2024-01-15T10:33:25;17.53;;;9.87;;
7901;SDS011;3996;49.674;10.716;2024-01-15T10:35:53;15.37;;;9.33;;
7901;SDS011;3996;49.674;10.716;2024-01-15T10:38:23;16.93;;;9.97;;
7901;SDS011;3996;49.674;10.716;2024-01-15T10:43:19;17.23;;;10.07;;
7901;SDS011;3996;49.674;10.716;2024-01-15T10:45:46;14.87;;;9.10;;
7901;SDS011;3996;49.674;10.716;2024-01-15T10:48:12;16.27;;;9.33;;
7901;SDS011;3996;49.674;10.716;2024-01-15T10:50:38;19.67;;;9.73;;
7901;SDS011;3996;49.674;10.716;2024-01-15T10:53:05;18.63;;;10.43;;
7901;SDS011;3996;49.674;10.716;2024-01-15T10:55:33;17.27;;;9.57;;
7901;SDS011;3996;49.674;10.716;2024-01-15T10:58:01;19.03;;;10.17;;
7901;SDS011;3996;49.674;10.716;2024-01-15T11:00:29;19.03;;;9.90;;
7901;SDS011;3996;49.674;10.716;2024-01-15T11:02:55;17.30;;;9.67;;
7901;SDS011;3996;49.674;10.716;2024-01-15T11:05:21;17.87;;;10.13;;
7901;SDS011;3996;49.674;10.716;2024-01-15T11:07:50;17.03;;;9.53;;
7901;SDS011;3996;49.674;10.716;2024-01-15T11:16:01;19.33;;;10.50;;
7901;SDS011;3996;49.674;10.716;2024-01-15T11:18:30;19.90;;;10.37;;
7901;SDS011;3996;49.674;10.716;2024-01-15T11:23:47;19.17;;;10.37;;
7901;SDS011;3996;49.674;10.716;2024-01-15T11:29:07;18.03;;;9.90;;
7901;SDS011;3996;49.674;10.716;2024-01-15T11:34:09;17.77;;;10.33;;
7901;SDS011;3996;49.674;10.716;2024-01-15T11:40:00;17.37;;;9.37;;
7901;SDS011;3996;49.674;10.716;2024-01-15T11:42:07;15.07;;;9.33;;
7901;SDS011;3996;49.674;10.716;2024-01-15T11:44:34;17.03;;;9.87;;
7901;SDS011;3996;49.674;10.716;2024-01-15T11:47:01;17.83;;;9.97;;
7901;SDS011;3996;49.674;10.716;2024-01-15T11:52:18;13.80;;;9.10;;
7901;SDS011;3996;49.674;10.716;2024-01-15T11:55:01;15.87;;;8.80;;
7901;SDS011;3996;49.674;10.716;2024-01-15T11:57:40;15.80;;;9.63;;
7901;SDS011;3996;49.674;10.716;2024-01-15T12:00:14;15.43;;;9.40;;
7901;SDS011;3996;49.674;10.716;2024-01-15T12:02:41;16.27;;;9.37;;
7901;SDS011;3996;49.674;10.716;2024-01-15T12:05:08;17.13;;;9.47;;
7901;SDS011;3996;49.674;10.716;2024-01-15T12:07:35;16.37;;;9.57;;
7901;SDS011;3996;49.674;10.716;2024-01-15T12:10:01;15.50;;;9.47;;
7901;SDS011;3996;49.674;10.716;2024-01-15T12:12:29;17.90;;;9.87;;
7901;SDS011;3996;49.674;10.716;2024-01-15T12:15:18;16.63;;;10.03;;
7901;SDS011;3996;49.674;10.716;2024-01-15T12:17:43;15.37;;;9.30;;
7901;SDS011;3996;49.674;10.716;2024-01-15T12:20:10;15.80;;;9.47;;
7901;SDS011;3996;49.674;10.716;2024-01-15T12:22:37;20.87;;;10.70;;
7901;SDS011;3996;49.674;10.716;2024-01-15T12:25:03;15.67;;;9.20;;
7901;SDS011;3996;49.674;10.716;2024-01-15T12:27:29;14.80;;;9.33;;
7901;SDS011;3996;49.674;10.716;2024-01-15T12:29:55;17.70;;;10.07;;
7901;SDS011;3996;49.674;10.716;2024-01-15T12:32:20;17.27;;;9.70;;
7901;SDS011;3996;49.674;10.716;2024-01-15T12:34:49;19.13;;;10.57;;
7901;SDS011;3996;49.674;10.716;2024-01-15T12:37:15;17.03;;;10.07;;
7901;SDS011;3996;49.674;10.716;2024-01-15T12:39:43;15.23;;;8.57;;
7901;SDS011;3996;49.674;10.716;2024-01-15T12:42:09;18.10;;;9.13;;
7901;SDS011;3996;49.674;10.716;2024-01-15T12:44:35;15.27;;;8.67;;
7901;SDS011;3996;49.674;10.716;2024-01-15T12:47:03;14.37;;;8.87;;
7901;SDS011;3996;49.674;10.716;2024-01-15T12:49:29;13.07;;;8.60;;
7901;SDS011;3996;49.674;10.716;2024-01-15T12:51:58;16.77;;;9.10;;
7901;SDS011;3996;49.674;10.716;2024-01-15T12:54:25;12.70;;;8.40;;
7901;SDS011;3996;49.674;10.716;2024-01-15T12:56:51;17.33;;;9.27;;
7901;SDS011;3996;49.674;10.716;2024-01-15T12:59:18;13.13;;;8.50;;
7901;SDS011;3996;49.674;10.716;2024-01-15T13:01:44;13.47;;;8.43;;
7901;SDS011;3996;49.674;10.716;2024-01-15T13:04:11;14.00;;;7.87;;
7901;SDS011;3996;49.674;10.716;2024-01-15T13:06:37;14.00;;;8.37;;
7901;SDS011;3996;49.674;10.716;2024-01-15T13:09:03;12.90;;;8.20;;
7901;SDS011;3996;49.674;10.716;2024-01-15T13:11:32;14.30;;;8.87;;
7901;SDS011;3996;49.674;10.716;2024-01-15T13:13:58;14.73;;;9.23;;
7901;SDS011;3996;49.674;10.716;2024-01-15T13:16:24;11.87;;;7.90;;
7901;SDS011;3996;49.674;10.716;2024-01-15T13:18:52;15.07;;;8.73;;
7901;SDS011;3996;49.674;10.716;2024-01-15T13:21:17;13.27;;;8.17;;
7901;SDS011;3996;49.674;10.716;2024-01-15T13:23:43;11.50;;;7.60;;
7901;SDS011;3996;49.674;10.716;2024-01-15T13:26:08;13.67;;;8.27;;
7901;SDS011;3996;49.674;10.716;2024-01-15T13:28:34;11.93;;;7.83;;
7901;SDS011;3996;49.674;10.716;2024-01-15T13:31:03;12.00;;;7.97;;
7901;SDS011;3996;49.674;10.716;2024-01-15T13:34:04;13.17;;;7.53;;
7901;SDS011;3996;49.674;10.716;2024-01-15T13:37:40;11.33;;;6.70;;
7901;SDS011;3996;49.674;10.716;2024-01-15T13:44:10;12.30;;;6.97;;
7901;SDS011;3996;49.674;10.716;2024-01-15T13:47:15;10.10;;;6.30;;
7901;SDS011;3996;49.674;10.716;2024-01-15T13:50:23;9.23;;;6.23;;
7901;SDS011;3996;49.674;10.716;2024-01-15T13:56:15;10.03;;;6.50;;
7901;SDS011;3996;49.674;10.716;2024-01-15T13:58:41;10.70;;;6.30;;
7901;SDS011;3996;49.674;10.716;2024-01-15T14:01:12;9.93;;;6.50;;
7901;SDS011;3996;49.674;10.716;2024-01-15T14:04:04;9.97;;;5.83;;
7901;SDS011;3996;49.674;10.716;2024-01-15T14:07:02;9.50;;;5.97;;
7901;SDS011;3996;49.674;10.716;2024-01-15T14:10:28;10.00;;;6.20;;
7901;SDS011;3996;49.674;10.716;2024-01-15T14:13:24;11.23;;;5.90;;
7901;SDS011;3996;49.674;10.716;2024-01-15T14:16:36;9.20;;;5.90;;
7901;SDS011;3996;49.674;10.716;2024-01-15T14:19:55;10.20;;;5.90;;
7901;SDS011;3996;49.674;10.716;2024-01-15T14:23:18;9.43;;;6.37;;
7901;SDS011;3996;49.674;10.716;2024-01-15T14:25:46;9.73;;;6.17;;
7901;SDS011;3996;49.674;10.716;2024-01-15T14:28:13;10.17;;;5.93;;
7901;SDS011;3996;49.674;10.716;2024-01-15T14:30:39;9.57;;;5.90;;
7901;SDS011;3996;49.674;10.716;2024-01-15T14:33:05;7.80;;;5.13;;
7901;SDS011;3996;49.674;10.716;2024-01-15T14:35:33;9.73;;;5.90;;
7901;SDS011;3996;49.674;10.716;2024-01-15T14:38:00;7.73;;;5.47;;
7901;SDS011;3996;49.674;10.716;2024-01-15T14:40:29;9.47;;;5.43;;
7901;SDS011;3996;49.674;10.716;2024-01-15T14:42:55;10.33;;;5.63;;
7901;SDS011;3996;49.674;10.716;2024-01-15T14:45:26;6.37;;;4.90;;
7901;SDS011;3996;49.674;10.716;2024-01-15T14:47:52;7.07;;;4.63;;
7901;SDS011;3996;49.674;10.716;2024-01-15T14:50:19;7.87;;;5.30;;
7901;SDS011;3996;49.674;10.716;2024-01-15T14:52:44;9.17;;;5.57;;
7901;SDS011;3996;49.674;10.716;2024-01-15T14:55:11;7.10;;;4.67;;
7901;SDS011;3996;49.674;10.716;2024-01-15T14:57:36;7.33;;;5.17;;
7901;SDS011;3996;49.674;10.716;2024-01-15T15:00:03;8.50;;;5.23;;
7901;SDS011;3996;49.674;10.716;2024-01-15T15:02:32;9.03;;;5.27;;
7901;SDS011;3996;49.674;10.716;2024-01-15T15:05:01;9.07;;;5.70;;
7901;SDS011;3996;49.674;10.716;2024-01-15T15:07:28;9.20;;;5.57;;
7901;SDS011;3996;49.674;10.716;2024-01-15T15:09:53;7.87;;;5.43;;